sensor_id;sensor_type;location;lat;lon;timestamp;pressure;altitude;pressure_sealevel;temperature;humidity
84578;BME280;74803;44.756;19.218;2024-03-17T00:01:52;100920.59;;;19.85;nan
84578;BME280;74803;44.756;19.218;2024-03-17T00:04:18;100919.16;;;20.40;nan
84578;BME280;74803;44.756;19.218;2024-03-17T00:06:45;100924.59;;;20.07;nan
84578;BME280;74803;44.756;19.218;2024-03-17T00:09:10;100923.47;;;19.70;nan
84578;BME280;74803;44.756;19.218;2024-03-17T00:11:36;100926.59;;;20.12;nan
84578;BME280;74803;44.756;19.218;2024-03-17T00:14:02;100916.16;;;19.79;nan
84578;BME280;74803;44.756;19.218;2024-03-17T00:16:28;100912.34;;;19.62;nan
84578;BME280;74803;44.756;19.218;2024-03-17T00:18:54;100914.56;;;20.22;nan
84578;BME280;74803;44.756;19.218;2024-03-17T00:21:21;100912.56;;;20.56;nan
84578;BME280;74803;44.756;19.218;2024-03-17T00:23:49;100925.22;;;20.47;nan
84578;BME280;74803;44.756;19.218;2024-03-17T00:26:16;100928.53;;;19.78;nan
84578;BME280;74803;44.756;19.218;2024-03-17T00:28:42;100925.16;;;20.16;nan
84578;BME280;74803;44.756;19.218;2024-03-17T00:31:08;100928.13;;;20.71;nan
84578;BME280;74803;44.756;19.218;2024-03-17T00:33:35;100919.69;;;20.87;nan
84578;BME280;74803;44.756;19.218;2024-03-17T00:36:01;100920.63;;;20.92;nan
84578;BME280;74803;44.756;19.218;2024-03-17T00:38:27;100930.78;;;20.95;nan
84578;BME280;74803;44.756;19.218;2024-03-17T00:40:52;100926.41;;;20.07;nan
84578;BME280;74803;44.756;19.218;2024-03-17T00:43:18;100926.09;;;20.28;nan
84578;BME280;74803;44.756;19.218;2024-03-17T00:45:44;100934.50;;;20.56;nan
84578;BME280;74803;44.756;19.218;2024-03-17T00:48:16;100936.69;;;20.21;nan
84578;BME280;74803;44.756;19.218;2024-03-17T00:50:41;100938.03;;;19.93;nan
84578;BME280;74803;44.756;19.218;2024-03-17T00:53:07;100927.31;;;19.81;nan
84578;BME280;74803;44.756;19.218;2024-03-17T00:55:33;100928.53;;;19.78;nan
84578;BME280;74803;44.756;19.218;2024-03-17T00:57:58;100927.28;;;19.88;nan
84578;BME280;74803;44.756;19.218;2024-03-17T01:00:24;100929.13;;;19.80;nan
84578;BME280;74803;44.756;19.218;2024-03-17T01:02:50;100926.78;;;19.53;nan
84578;BME280;74803;44.756;19.218;2024-03-17T01:05:15;100931.97;;;19.79;nan
84578;BME280;74803;44.756;19.218;2024-03-17T01:07:41;100921.31;;;20.12;nan
84578;BME280;74803;44.756;19.218;2024-03-17T01:10:07;100933.69;;;20.56;nan
84578;BME280;74803;44.756;19.218;2024-03-17T01:12:34;100929.94;;;19.88;nan
84578;BME280;74803;44.756;19.218;2024-03-17T01:14:59;100917.44;;;20.52;nan
84578;BME280;74803;44.756;19.218;2024-03-17T01:17:25;100923.19;;;21.05;nan
84578;BME280;74803;44.756;19.218;2024-03-17T01:19:50;100924.16;;;20.86;nan
84578;BME280;74803;44.756;19.218;2024-03-17T01:22:17;100924.56;;;20.83;nan
84578;BME280;74803;44.756;19.218;2024-03-17T01:24:42;100930.81;;;20.89;nan
84578;BME280;74803;44.756;19.218;2024-03-17T01:27:11;100929.97;;;20.32;nan
84578;BME280;74803;44.756;19.218;2024-03-17T01:29:40;100933.94;;;20.48;nan
84578;BME280;74803;44.756;19.218;2024-03-17T01:32:05;100932.22;;;20.22;nan
84578;BME280;74803;44.756;19.218;2024-03-17T01:34:31;100934.25;;;19.62;nan
84578;BME280;74803;44.756;19.218;2024-03-17T01:36:56;100929.53;;;19.84;nan
84578;BME280;74803;44.756;19.218;2024-03-17T01:39:22;100935.78;;;19.90;nan
84578;BME280;74803;44.756;19.218;2024-03-17T01:41:48;100928.72;;;19.83;nan
84578;BME280;74803;44.756;19.218;2024-03-17T01:44:25;100927.03;;;20.02;nan
84578;BME280;74803;44.756;19.218;2024-03-17T01:46:52;100932.97;;;19.84;nan
84578;BME280;74803;44.756;19.218;2024-03-17T01:49:19;100926.59;;;20.12;nan
84578;BME280;74803;44.756;19.218;2024-03-17T01:51:46;100923.78;;;20.00;nan
84578;BME280;74803;44.756;19.218;2024-03-17T01:54:13;100919.81;;;20.67;nan
84578;BME280;74803;44.756;19.218;2024-03-17T01:56:40;100920.94;;;20.78;nan
84578;BME280;74803;44.756;19.218;2024-03-17T01:59:06;100912.78;;;20.54;nan
84578;BME280;74803;44.756;19.218;2024-03-17T02:01:31;100917.63;;;20.19;nan
84578;BME280;74803;44.756;19.218;2024-03-17T02:03:58;100918.66;;;20.56;nan
84578;BME280;74803;44.756;19.218;2024-03-17T02:06:24;100924.47;;;19.82;nan
84578;BME280;74803;44.756;19.218;2024-03-17T02:08:51;100920.50;;;19.27;nan
84578;BME280;74803;44.756;19.218;2024-03-17T02:11:28;100920.28;;;19.62;nan
84578;BME280;74803;44.756;19.218;2024-03-17T02:13:55;100916.31;;;19.97;nan
84578;BME280;74803;44.756;19.218;2024-03-17T02:16:21;100922.56;;;20.03;nan
84578;BME280;74803;44.756;19.218;2024-03-17T02:18:47;100921.09;;;19.62;nan
84578;BME280;74803;44.756;19.218;2024-03-17T02:21:13;100923.47;;;19.77;nan
84578;BME280;74803;44.756;19.218;2024-03-17T02:23:42;100927.34;;;20.25;nan
84578;BME280;74803;44.756;19.218;2024-03-17T02:26:08;100925.81;;;20.49;nan
84578;BME280;74803;44.756;19.218;2024-03-17T02:28:41;100933.88;;;20.16;nan
84578;BME280;74803;44.756;19.218;2024-03-17T02:31:08;100934.97;;;19.96;nan
84578;BME280;74803;44.756;19.218;2024-03-17T02:33:35;100924.72;;;19.55;nan
84578;BME280;74803;44.756;19.218;2024-03-17T02:36:05;100929.75;;;19.76;nan
84578;BME280;74803;44.756;19.218;2024-03-17T02:38:34;100936.72;;;20.08;nan
84578;BME280;74803;44.756;19.218;2024-03-17T02:41:19;100933.84;;;19.72;nan
84578;BME280;74803;44.756;19.218;2024-03-17T02:43:45;100930.38;;;19.78;nan
84578;BME280;74803;44.756;19.218;2024-03-17T02:46:12;100933.06;;;19.58;nan
84578;BME280;74803;44.756;19.218;2024-03-17T02:48:42;100933.97;;;19.97;nan
84578;BME280;74803;44.756;19.218;2024-03-17T02:51:17;100926.81;;;20.04;nan
84578;BME280;74803;44.756;19.218;2024-03-17T02:53:44;100926.34;;;19.29;nan
84578;BME280;74803;44.756;19.218;2024-03-17T02:56:14;100930.19;;;19.73;nan
84578;BME280;74803;44.756;19.218;2024-03-17T02:58:44;100924.97;;;19.33;nan
84578;BME280;74803;44.756;19.218;2024-03-17T03:01:11;100942.59;;;20.17;nan
84578;BME280;74803;44.756;19.218;2024-03-17T03:03:38;100933.06;;;19.38;nan
84578;BME280;74803;44.756;19.218;2024-03-17T03:06:04;100945.84;;;18.89;nan
84578;BME280;74803;44.756;19.218;2024-03-17T03:08:38;100937.72;;;18.97;nan
84578;BME280;74803;44.756;19.218;2024-03-17T03:11:07;100949.47;;;19.01;nan
84578;BME280;74803;44.756;19.218;2024-03-17T03:13:40;100952.53;;;18.98;nan
84578;BME280;74803;44.756;19.218;2024-03-17T03:16:07;100945.63;;;19.10;nan
84578;BME280;74803;44.756;19.218;2024-03-17T03:18:34;100951.69;;;19.11;nan
84578;BME280;74803;44.756;19.218;2024-03-17T03:21:00;100952.91;;;18.95;nan
84578;BME280;74803;44.756;19.218;2024-03-17T03:23:25;100954.53;;;18.96;nan
84578;BME280;74803;44.756;19.218;2024-03-17T03:26:00;100960.38;;;18.85;nan
84578;BME280;74803;44.756;19.218;2024-03-17T03:28:26;100959.19;;;19.07;nan
84578;BME280;74803;44.756;19.218;2024-03-17T03:30:52;100954.53;;;18.96;nan
84578;BME280;74803;44.756;19.218;2024-03-17T03:33:19;100955.13;;;18.91;nan
84578;BME280;74803;44.756;19.218;2024-03-17T03:35:44;100963.44;;;19.34;nan
84578;BME280;74803;44.756;19.218;2024-03-17T03:38:11;100958.56;;;19.64;nan
84578;BME280;74803;44.756;19.218;2024-03-17T03:40:39;100946.50;;;20.01;nan
84578;BME280;74803;44.756;19.218;2024-03-17T03:43:05;100955.72;;;19.39;nan
84578;BME280;74803;44.756;19.218;2024-03-17T03:45:30;100957.31;;;19.87;nan
84578;BME280;74803;44.756;19.218;2024-03-17T03:47:56;100962.06;;;19.52;nan
84578;BME280;74803;44.756;19.218;2024-03-17T03:50:22;100966.31;;;19.33;nan
84578;BME280;74803;44.756;19.218;2024-03-17T03:52:48;100967.53;;;19.24;nan
84578;BME280;74803;44.756;19.218;2024-03-17T03:55:16;100966.28;;;19.59;nan
84578;BME280;74803;44.756;19.218;2024-03-17T03:57:43;100962.97;;;19.83;nan
84578;BME280;74803;44.756;19.218;2024-03-17T04:00:12;100967.53;;;19.24;nan
84578;BME280;74803;44.756;19.218;2024-03-17T04:02:39;100963.78;;;19.91;nan
84578;BME280;74803;44.756;19.218;2024-03-17T04:05:05;100965.44;;;19.78;nan
84578;BME280;74803;44.756;19.218;2024-03-17T04:07:31;100973.91;;;19.94;nan
84578;BME280;74803;44.756;19.218;2024-03-17T04:09:56;100971.56;;;20.30;nan
84578;BME280;74803;44.756;19.218;2024-03-17T04:12:24;100976.91;;;20.17;nan
84578;BME280;74803;44.756;19.218;2024-03-17T04:14:50;100970.47;;;19.93;nan
84578;BME280;74803;44.756;19.218;2024-03-17T04:17:22;100976.81;;;19.72;nan
84578;BME280;74803;44.756;19.218;2024-03-17T04:19:49;100981.31;;;20.36;nan
84578;BME280;74803;44.756;19.218;2024-03-17T04:22:15;100985.38;;;20.77;nan
84578;BME280;74803;44.756;19.218;2024-03-17T04:24:40;100983.38;;;20.72;nan
84578;BME280;74803;44.756;19.218;2024-03-17T04:27:06;100983.59;;;20.64;nan
84578;BME280;74803;44.756;19.218;2024-03-17T04:29:32;100985.38;;;20.77;nan
84578;BME280;74803;44.756;19.218;2024-03-17T04:31:57;100990.91;;;20.17;nan
84578;BME280;74803;44.756;19.218;2024-03-17T04:34:23;100995.00;;;20.00;nan
84578;BME280;74803;44.756;19.218;2024-03-17T04:36:48;101001.72;;;20.03;nan
84578;BME280;74803;44.756;19.218;2024-03-17T04:39:14;101006.84;;;19.19;nan
84578;BME280;74803;44.756;19.218;2024-03-17T04:41:40;101016.97;;;19.22;nan
84578;BME280;74803;44.756;19.218;2024-03-17T04:44:06;101021.00;;;19.11;nan
84578;BME280;74803;44.756;19.218;2024-03-17T04:46:32;101015.75;;;19.64;nan
84578;BME280;74803;44.756;19.218;2024-03-17T04:48:58;101022.63;;;19.32;nan
84578;BME280;74803;44.756;19.218;2024-03-17T04:51:23;101030.09;;;18.89;nan
84578;BME280;74803;44.756;19.218;2024-03-17T04:53:49;101036.56;;;18.93;nan
84578;BME280;74803;44.756;19.218;2024-03-17T04:56:14;101040.31;;;18.58;nan
84578;BME280;74803;44.756;19.218;2024-03-17T04:58:40;101049.84;;;18.24;nan
84578;BME280;74803;44.756;19.218;2024-03-17T05:01:09;101053.75;;;18.35;nan
84578;BME280;74803;44.756;19.218;2024-03-17T05:03:35;101052.31;;;17.98;nan
84578;BME280;74803;44.756;19.218;2024-03-17T05:06:03;101058.53;;;17.90;nan
84578;BME280;74803;44.756;19.218;2024-03-17T05:08:29;101066.41;;;18.18;nan
84578;BME280;74803;44.756;19.218;2024-03-17T05:10:56;101065.72;;;18.44;nan
84578;BME280;74803;44.756;19.218;2024-03-17T05:13:21;101068.19;;;17.83;nan
84578;BME280;74803;44.756;19.218;2024-03-17T05:15:47;101068.09;;;18.32;nan
84578;BME280;74803;44.756;19.218;2024-03-17T05:18:13;101073.50;;;17.90;nan
84578;BME280;74803;44.756;19.218;2024-03-17T05:20:38;101071.31;;;17.72;nan
84578;BME280;74803;44.756;19.218;2024-03-17T05:23:04;101076.06;;;17.83;nan
84578;BME280;74803;44.756;19.218;2024-03-17T05:25:29;101080.56;;;17.47;nan
84578;BME280;74803;44.756;19.218;2024-03-17T05:27:55;101081.09;;;17.14;nan
84578;BME280;74803;44.756;19.218;2024-03-17T05:30:20;101085.34;;;17.79;nan
84578;BME280;74803;44.756;19.218;2024-03-17T05:32:46;101084.97;;;17.40;nan
84578;BME280;74803;44.756;19.218;2024-03-17T05:35:12;101076.50;;;18.15;nan
84578;BME280;74803;44.756;19.218;2024-03-17T05:37:37;101076.81;;;18.80;nan
84578;BME280;74803;44.756;19.218;2024-03-17T05:40:03;101082.84;;;18.68;nan
84578;BME280;74803;44.756;19.218;2024-03-17T05:42:29;101077.03;;;18.03;nan
84578;BME280;74803;44.756;19.218;2024-03-17T05:44:55;101069.47;;;18.28;nan
84578;BME280;74803;44.756;19.218;2024-03-17T05:47:21;101070.72;;;18.73;nan
84578;BME280;74803;44.756;19.218;2024-03-17T05:49:48;101066.16;;;19.15;nan
84578;BME280;74803;44.756;19.218;2024-03-17T05:52:13;101066.44;;;18.66;nan
84578;BME280;74803;44.756;19.218;2024-03-17T05:54:39;101061.97;;;19.93;nan
84578;BME280;74803;44.756;19.218;2024-03-17T05:57:05;101069.66;;;18.61;nan
84578;BME280;74803;44.756;19.218;2024-03-17T05:59:34;101075.44;;;18.09;nan
84578;BME280;74803;44.756;19.218;2024-03-17T06:01:59;101070.34;;;18.42;nan
84578;BME280;74803;44.756;19.218;2024-03-17T06:04:25;101072.34;;;18.68;nan
84578;BME280;74803;44.756;19.218;2024-03-17T06:06:50;101079.13;;;19.03;nan
84578;BME280;74803;44.756;19.218;2024-03-17T06:09:16;101077.81;;;19.47;nan
84578;BME280;74803;44.756;19.218;2024-03-17T06:11:46;101069.06;;;19.99;nan
84578;BME280;74803;44.756;19.218;2024-03-17T06:14:11;101077.59;;;19.94;nan
84578;BME280;74803;44.756;19.218;2024-03-17T06:16:38;101085.28;;;20.09;nan
84578;BME280;74803;44.756;19.218;2024-03-17T06:19:04;101095.78;;;19.23;nan
84578;BME280;74803;44.756;19.218;2024-03-17T06:21:30;101098.44;;;19.36;nan
84578;BME280;74803;44.756;19.218;2024-03-17T06:23:56;101106.19;;;19.51;nan
84578;BME280;74803;44.756;19.218;2024-03-17T06:26:22;101114.41;;;18.61;nan
84578;BME280;74803;44.756;19.218;2024-03-17T06:28:48;101114.31;;;18.48;nan
84578;BME280;74803;44.756;19.218;2024-03-17T06:31:14;101121.59;;;18.87;nan
84578;BME280;74803;44.756;19.218;2024-03-17T06:33:40;101126.00;;;18.73;nan
84578;BME280;74803;44.756;19.218;2024-03-17T06:36:06;101123.47;;;18.93;nan
84578;BME280;74803;44.756;19.218;2024-03-17T06:38:33;101123.06;;;18.96;nan
84578;BME280;74803;44.756;19.218;2024-03-17T06:40:58;101122.34;;;18.68;nan
84578;BME280;74803;44.756;19.218;2024-03-17T06:43:24;101140.06;;;17.97;nan
84578;BME280;74803;44.756;19.218;2024-03-17T06:45:54;101136.38;;;18.47;nan
84578;BME280;74803;44.756;19.218;2024-03-17T06:48:20;101144.47;;;18.18;nan
84578;BME280;74803;44.756;19.218;2024-03-17T06:50:46;101145.56;;;17.74;nan
84578;BME280;74803;44.756;19.218;2024-03-17T06:53:12;101137.81;;;18.22;nan
84578;BME280;74803;44.756;19.218;2024-03-17T06:55:38;101150.38;;;18.88;nan
84578;BME280;74803;44.756;19.218;2024-03-17T06:58:04;101151.09;;;18.69;nan
84578;BME280;74803;44.756;19.218;2024-03-17T07:00:29;101154.56;;;18.42;nan
84578;BME280;74803;44.756;19.218;2024-03-17T07:02:55;101160.56;;;19.05;nan
84578;BME280;74803;44.756;19.218;2024-03-17T07:05:21;101164.59;;;18.94;nan
84578;BME280;74803;44.756;19.218;2024-03-17T07:07:46;101171.13;;;19.11;nan
84578;BME280;74803;44.756;19.218;2024-03-17T07:10:12;101169.28;;;19.05;nan
84578;BME280;74803;44.756;19.218;2024-03-17T07:12:39;101163.00;;;20.06;nan
84578;BME280;74803;44.756;19.218;2024-03-17T07:15:05;101171.19;;;19.31;nan
84578;BME280;74803;44.756;19.218;2024-03-17T07:17:31;101171.34;;;18.41;nan
84578;BME280;74803;44.756;19.218;2024-03-17T07:19:57;101170.19;;;19.32;nan
84578;BME280;74803;44.756;19.218;2024-03-17T07:22:22;101173.50;;;19.47;nan
84578;BME280;74803;44.756;19.218;2024-03-17T07:24:48;101173.31;;;19.01;nan
84578;BME280;74803;44.756;19.218;2024-03-17T07:27:17;101179.97;;;19.45;nan
84578;BME280;74803;44.756;19.218;2024-03-17T07:29:43;101182.63;;;19.64;nan
84578;BME280;74803;44.756;19.218;2024-03-17T07:32:08;101177.00;;;20.07;nan
84578;BME280;74803;44.756;19.218;2024-03-17T07:34:34;101183.44;;;19.65;nan
84578;BME280;74803;44.756;19.218;2024-03-17T07:37:00;101182.28;;;19.87;nan
84578;BME280;74803;44.756;19.218;2024-03-17T07:39:30;101187.75;;;20.05;nan
84578;BME280;74803;44.756;19.218;2024-03-17T07:42:00;101185.50;;;19.69;nan
84578;BME280;74803;44.756;19.218;2024-03-17T07:44:30;101186.34;;;19.96;nan
84578;BME280;74803;44.756;19.218;2024-03-17T07:47:03;101188.56;;;20.25;nan
84578;BME280;74803;44.756;19.218;2024-03-17T07:49:32;101187.66;;;21.35;nan
84578;BME280;74803;44.756;19.218;2024-03-17T07:51:58;101184.50;;;21.14;nan
84578;BME280;74803;44.756;19.218;2024-03-17T07:54:27;101192.97;;;21.29;nan
84578;BME280;74803;44.756;19.218;2024-03-17T07:56:53;101182.59;;;21.34;nan
84578;BME280;74803;44.756;19.218;2024-03-17T07:59:19;101191.38;;;21.59;nan
84578;BME280;74803;44.756;19.218;2024-03-17T08:01:45;101198.50;;;20.56;nan
84578;BME280;74803;44.756;19.218;2024-03-17T08:04:11;101192.56;;;20.67;nan
84578;BME280;74803;44.756;19.218;2024-03-17T08:06:41;101188.78;;;19.98;nan
84578;BME280;74803;44.756;19.218;2024-03-17T08:09:09;101196.06;;;20.48;nan
84578;BME280;74803;44.756;19.218;2024-03-17T08:11:37;101188.94;;;20.62;nan
84578;BME280;74803;44.756;19.218;2024-03-17T08:14:03;101199.88;;;21.68;nan
84578;BME280;74803;44.756;19.218;2024-03-17T08:16:31;101196.31;;;21.56;nan
84578;BME280;74803;44.756;19.218;2024-03-17T08:18:57;101190.94;;;21.31;nan
84578;BME280;74803;44.756;19.218;2024-03-17T08:21:22;101196.06;;;20.48;nan
84578;BME280;74803;44.756;19.218;2024-03-17T08:23:48;101191.78;;;21.25;nan
84578;BME280;74803;44.756;19.218;2024-03-17T08:26:14;101191.72;;;21.38;nan
84578;BME280;74803;44.756;19.218;2024-03-17T08:28:40;101198.28;;;21.91;nan
84578;BME280;74803;44.756;19.218;2024-03-17T08:31:06;101199.94;;;22.17;nan
84578;BME280;74803;44.756;19.218;2024-03-17T08:33:31;101198.91;;;22.61;nan
84578;BME280;74803;44.756;19.218;2024-03-17T08:36:02;101191.94;;;23.03;nan
84578;BME280;74803;44.756;19.218;2024-03-17T08:38:30;101198.56;;;22.76;nan
84578;BME280;74803;44.756;19.218;2024-03-17T08:40:57;101198.84;;;22.68;nan
84578;BME280;74803;44.756;19.218;2024-03-17T08:43:23;101195.25;;;21.57;nan
84578;BME280;74803;44.756;19.218;2024-03-17T08:45:56;101194.41;;;23.16;nan
84578;BME280;74803;44.756;19.218;2024-03-17T08:48:28;101191.28;;;23.67;nan
84578;BME280;74803;44.756;19.218;2024-03-17T08:50:54;101198.22;;;22.48;nan
84578;BME280;74803;44.756;19.218;2024-03-17T08:53:21;101198.31;;;22.16;nan
84578;BME280;74803;44.756;19.218;2024-03-17T08:55:47;101195.34;;;22.06;nan
84578;BME280;74803;44.756;19.218;2024-03-17T08:58:12;101198.84;;;22.68;nan
84578;BME280;74803;44.756;19.218;2024-03-17T09:00:38;101199.66;;;23.53;nan
84578;BME280;74803;44.756;19.218;2024-03-17T09:03:07;101198.22;;;23.20;nan
84578;BME280;74803;44.756;19.218;2024-03-17T09:05:36;101208.50;;;22.37;nan
84578;BME280;74803;44.756;19.218;2024-03-17T09:08:02;101200.91;;;23.02;nan
84578;BME280;74803;44.756;19.218;2024-03-17T09:10:28;101193.44;;;23.59;nan
84578;BME280;74803;44.756;19.218;2024-03-17T09:12:54;101198.41;;;23.07;nan
84578;BME280;74803;44.756;19.218;2024-03-17T09:15:19;101192.75;;;23.34;nan
84578;BME280;74803;44.756;19.218;2024-03-17T09:17:46;101199.25;;;23.67;nan
84578;BME280;74803;44.756;19.218;2024-03-17T09:20:13;101193.69;;;23.39;nan
84578;BME280;74803;44.756;19.218;2024-03-17T09:22:43;101202.63;;;23.27;nan
84578;BME280;74803;44.756;19.218;2024-03-17T09:25:09;101198.59;;;23.95;nan
84578;BME280;74803;44.756;19.218;2024-03-17T09:27:35;101191.56;;;23.00;nan
84578;BME280;74803;44.756;19.218;2024-03-17T09:30:04;101188.59;;;23.56;nan
84578;BME280;74803;44.756;19.218;2024-03-17T09:32:36;101185.94;;;24.56;nan
84578;BME280;74803;44.756;19.218;2024-03-17T09:35:02;101190.38;;;25.58;nan
84578;BME280;74803;44.756;19.218;2024-03-17T09:37:29;101187.72;;;24.78;nan
84578;BME280;74803;44.756;19.218;2024-03-17T09:39:57;101188.50;;;24.27;nan
84578;BME280;74803;44.756;19.218;2024-03-17T09:42:23;101188.69;;;24.61;nan
84578;BME280;74803;44.756;19.218;2024-03-17T09:44:50;101185.78;;;25.42;nan
84578;BME280;74803;44.756;19.218;2024-03-17T09:47:20;101188.75;;;26.07;nan
84578;BME280;74803;44.756;19.218;2024-03-17T09:49:50;101179.78;;;25.18;nan
84578;BME280;74803;44.756;19.218;2024-03-17T09:52:22;101183.13;;;23.81;nan
84578;BME280;74803;44.756;19.218;2024-03-17T09:54:54;101186.88;;;24.26;nan
84578;BME280;74803;44.756;19.218;2024-03-17T09:57:22;101192.97;;;25.70;nan
84578;BME280;74803;44.756;19.218;2024-03-17T09:59:53;101187.78;;;24.67;nan
84578;BME280;74803;44.756;19.218;2024-03-17T10:02:22;101188.84;;;26.12;nan
84578;BME280;74803;44.756;19.218;2024-03-17T10:04:48;101171.84;;;27.17;nan
84578;BME280;74803;44.756;19.218;2024-03-17T10:07:14;101173.13;;;27.68;nan
84578;BME280;74803;44.756;19.218;2024-03-17T10:09:41;101173.38;;;27.40;nan
84578;BME280;74803;44.756;19.218;2024-03-17T10:12:26;101175.00;;;26.49;nan
84578;BME280;74803;44.756;19.218;2024-03-17T10:15:00;101173.84;;;27.32;nan
84578;BME280;74803;44.756;19.218;2024-03-17T10:17:32;101175.75;;;27.10;nan
84578;BME280;74803;44.756;19.218;2024-03-17T10:20:17;101168.59;;;26.28;nan
84578;BME280;74803;44.756;19.218;2024-03-17T10:23:00;101165.03;;;26.39;nan
84578;BME280;74803;44.756;19.218;2024-03-17T10:25:48;101159.34;;;26.52;nan
84578;BME280;74803;44.756;19.218;2024-03-17T10:28:15;101159.38;;;26.36;nan
84578;BME280;74803;44.756;19.218;2024-03-17T10:30:42;101162.41;;;25.89;nan
84578;BME280;74803;44.756;19.218;2024-03-17T10:33:23;101156.03;;;25.28;nan
84578;BME280;74803;44.756;19.218;2024-03-17T10:36:00;101155.75;;;26.25;nan
84578;BME280;74803;44.756;19.218;2024-03-17T10:38:27;101148.00;;;26.84;nan
84578;BME280;74803;44.756;19.218;2024-03-17T10:41:09;101153.34;;;27.64;nan
84578;BME280;74803;44.756;19.218;2024-03-17T10:43:37;101157.03;;;27.90;nan
84578;BME280;74803;44.756;19.218;2024-03-17T10:46:07;101150.97;;;28.47;nan
84578;BME280;74803;44.756;19.218;2024-03-17T10:48:34;101147.22;;;28.48;nan
84578;BME280;74803;44.756;19.218;2024-03-17T10:51:02;101146.69;;;28.46;nan
84578;BME280;74803;44.756;19.218;2024-03-17T10:53:29;101157.69;;;29.97;nan
84578;BME280;74803;44.756;19.218;2024-03-17T10:56:06;101145.28;;;28.95;nan
84578;BME280;74803;44.756;19.218;2024-03-17T10:58:38;101139.50;;;29.49;nan
84578;BME280;74803;44.756;19.218;2024-03-17T11:01:06;101146.66;;;28.36;nan
84578;BME280;74803;44.756;19.218;2024-03-17T11:03:33;101151.81;;;29.50;nan
84578;BME280;74803;44.756;19.218;2024-03-17T11:06:02;101149.69;;;30.77;nan
84578;BME280;74803;44.756;19.218;2024-03-17T11:08:30;101149.00;;;30.51;nan
84578;BME280;74803;44.756;19.218;2024-03-17T11:10:57;101146.47;;;29.55;nan
84578;BME280;74803;44.756;19.218;2024-03-17T11:13:23;101145.59;;;29.09;nan
84578;BME280;74803;44.756;19.218;2024-03-17T11:15:49;101139.63;;;28.87;nan
84578;BME280;74803;44.756;19.218;2024-03-17T11:21:05;101143.88;;;28.20;nan
84578;BME280;74803;44.756;19.218;2024-03-17T11:23:36;101140.72;;;27.55;nan
84578;BME280;74803;44.756;19.218;2024-03-17T11:26:06;101141.63;;;28.02;nan
84578;BME280;74803;44.756;19.218;2024-03-17T11:28:51;101144.03;;;27.40;nan
84578;BME280;74803;44.756;19.218;2024-03-17T11:31:43;101137.31;;;28.43;nan
84578;BME280;74803;44.756;19.218;2024-03-17T11:34:33;101137.19;;;30.42;nan
84578;BME280;74803;44.756;19.218;2024-03-17T11:37:02;101131.16;;;29.86;nan
84578;BME280;74803;44.756;19.218;2024-03-17T11:39:51;101134.13;;;30.74;nan
84578;BME280;74803;44.756;19.218;2024-03-17T11:42:28;101128.13;;;28.81;nan
84578;BME280;74803;44.756;19.218;2024-03-17T11:45:03;101125.94;;;30.40;nan
84578;BME280;74803;44.756;19.218;2024-03-17T11:47:36;101120.75;;;29.59;nan
84578;BME280;74803;44.756;19.218;2024-03-17T11:50:07;101115.88;;;29.05;nan
84578;BME280;74803;44.756;19.218;2024-03-17T11:52:35;101112.13;;;30.77;nan
84578;BME280;74803;44.756;19.218;2024-03-17T11:55:01;101105.22;;;29.36;nan
84578;BME280;74803;44.756;19.218;2024-03-17T11:57:27;101097.78;;;30.48;nan
84578;BME280;74803;44.756;19.218;2024-03-17T11:59:53;101102.16;;;30.23;nan
84578;BME280;74803;44.756;19.218;2024-03-17T12:02:21;101098.38;;;28.67;nan
84578;BME280;74803;44.756;19.218;2024-03-17T12:04:49;101092.94;;;31.38;nan
84578;BME280;74803;44.756;19.218;2024-03-17T12:07:20;101097.44;;;31.76;nan
84578;BME280;74803;44.756;19.218;2024-03-17T12:09:50;101085.72;;;33.46;nan
84578;BME280;74803;44.756;19.218;2024-03-17T12:12:20;101082.22;;;33.77;nan
84578;BME280;74803;44.756;19.218;2024-03-17T12:14:49;101076.19;;;33.02;nan
84578;BME280;74803;44.756;19.218;2024-03-17T12:17:20;101087.97;;;32.02;nan
84578;BME280;74803;44.756;19.218;2024-03-17T12:19:46;101080.41;;;30.25;nan
84578;BME280;74803;44.756;19.218;2024-03-17T12:22:20;101089.63;;;30.03;nan
84578;BME280;74803;44.756;19.218;2024-03-17T12:24:54;101087.13;;;28.08;nan
84578;BME280;74803;44.756;19.218;2024-03-17T12:27:25;101079.47;;;27.75;nan
84578;BME280;74803;44.756;19.218;2024-03-17T12:29:52;101081.09;;;27.12;nan
84578;BME280;74803;44.756;19.218;2024-03-17T12:32:25;101072.69;;;28.04;nan
84578;BME280;74803;44.756;19.218;2024-03-17T12:34:55;101069.81;;;28.11;nan
84578;BME280;74803;44.756;19.218;2024-03-17T12:37:25;101065.88;;;30.41;nan
84578;BME280;74803;44.756;19.218;2024-03-17T12:39:59;101068.06;;;30.34;nan
84578;BME280;74803;44.756;19.218;2024-03-17T12:42:28;101055.13;;;30.95;nan
84578;BME280;74803;44.756;19.218;2024-03-17T12:44:59;101066.66;;;29.22;nan
84578;BME280;74803;44.756;19.218;2024-03-17T12:47:26;101055.66;;;29.79;nan
84578;BME280;74803;44.756;19.218;2024-03-17T12:49:56;101060.81;;;30.34;nan
84578;BME280;74803;44.756;19.218;2024-03-17T12:52:28;101056.97;;;31.00;nan
84578;BME280;74803;44.756;19.218;2024-03-17T12:55:04;101058.72;;;31.48;nan
84578;BME280;74803;44.756;19.218;2024-03-17T12:57:50;101049.84;;;32.85;nan
84578;BME280;74803;44.756;19.218;2024-03-17T13:00:34;101044.03;;;31.69;nan
84578;BME280;74803;44.756;19.218;2024-03-17T13:05:26;101039.41;;;31.17;nan
84578;BME280;74803;44.756;19.218;2024-03-17T13:07:53;101030.91;;;32.34;nan
84578;BME280;74803;44.756;19.218;2024-03-17T13:10:20;101035.97;;;31.69;nan